METAR Data
IDs: Format: Raw Decoded Include TAF

Data at: 1121 UTC 18 Jan 2022

KETB 181115Z AUTO 00000KT 10SM OVC022 M04/M06 A2990 RMK AO2